Airfield :
LOGIN :

Register | Disclaimer

   EN    FR    IT 

 










Legend :    VFR   Marginal VFR   IFR   Intensive IFR   Very Intensive IFR
Visi :
Ceiling :
>= 8 km
>= 3000ft
5 to 8 km
1000 to 3000 ft
1500m to 5 km
500 to 1000 ft
800 to 1500m
200 to 500 ft
< 800m
< 200 ft
Symbols :   Thunderstorms  Fog  Heavy snow  Heavy precipitations  Wind > 20 kt
SIGMETs :     Misc.  Thunderstorms  Icing  Turbulence  Mountain Waves  Volcanic Ashes







- Airport Elevation : 622 ft
- IATA code : BRS
- Download approach charts


EGGD - Bristol Int.

CURRENT METAR :
  • 221850Z AUTO 29007KT 9999 NCD 17/09 Q1030

EXPIRED METARs :
  • 221820Z AUTO 30007KT 9999 NCD 18/09 Q1030
  • 221750Z AUTO 29008KT 9999 NCD 19/09 Q1030
  • 221720Z AUTO 30009KT 9999 NCD 19/08 Q1030
  • 221650Z AUTO 30009KT 9999 NCD 19/08 Q1030
  • 221620Z AUTO 30010KT 9999 NCD 19/09 Q1030

TAF TAF EGGD
Valid from the 22 at 18:00 until the 23 at 18:00 UTC


221703Z 2218/2318 28008KT CAVOK
ATIS : +44 1275 473 666
No reported NOTAMs for that airfield.



MET'MAP, your aeronautical weather chart ! - Copyright ORBIFLY December 2007 - Disclaimer

ORBIFLY MET'MAP TEAM :

Programming & Development : Alexandra Zaïnal
Concept & Development : Baudouin d'Aumeries
Co-Development & Prog : Marc-Olivier Méhu
Technical & hardware support : Manuel Goepfert

Contact : metmap@orbifly.com




SOURCES & CREDITS :

   NOAA